Time;durP1;ratioP1;P1;durP2;ratioP2;P2;SDS_P1;SDS_P2;PMS_P1;PMS_P2;Temp;Humidity;BMP_temperature;BMP_pressure;BME280_temperature;BME280_humidity;BME280_pressure;Samples;Min_cycle;Max_cycle;Signal;HPM_P1;HPM_P2
2022/08/30 00:02:25;;;;;;;2.92;2.72;;;20.20;99.90;;;;;;5108884;28;20272;-86
2022/08/30 00:04:54;;;;;;;5.18;3.00;;;20.20;99.90;;;;;;5115574;28;20229;-85
2022/08/30 00:07:22;;;;;;;3.92;3.60;;;20.10;99.90;;;;;;5105464;28;20232;-86
2022/08/30 00:09:51;;;;;;;3.50;3.17;;;20.10;99.90;;;;;;5095108;28;20268;-86
2022/08/30 00:12:21;;;;;;;4.72;3.10;;;20.10;99.90;;;;;;5098072;28;20295;-86
2022/08/30 00:14:50;;;;;;;5.03;3.45;;;20.10;99.90;;;;;;5095379;28;20275;-86
2022/08/30 00:17:18;;;;;;;3.72;3.38;;;20.10;99.90;;;;;;5097896;28;20223;-85
2022/08/30 00:19:47;;;;;;;3.65;3.35;;;20.00;99.90;;;;;;5094720;28;20200;-85
2022/08/30 00:22:15;;;;;;;3.60;3.30;;;20.10;99.90;;;;;;5111079;28;20306;-87
2022/08/30 00:24:43;;;;;;;4.30;3.58;;;20.10;99.90;;;;;;5115532;28;20230;-85
2022/08/30 00:27:11;;;;;;;3.03;2.83;;;20.00;99.90;;;;;;5109602;28;20300;-86
2022/08/30 00:29:41;;;;;;;6.93;4.53;;;20.00;99.90;;;;;;5114302;28;20299;-86
2022/08/30 00:32:10;;;;;;;4.15;3.60;;;20.00;99.90;;;;;;5095675;28;20259;-87
2022/08/30 00:34:38;;;;;;;3.70;3.15;;;20.00;99.90;;;;;;5094639;28;20231;-87
2022/08/30 00:37:06;;;;;;;4.45;3.00;;;20.00;99.90;;;;;;5094404;28;20197;-87
2022/08/30 00:39:34;;;;;;;3.47;3.08;;;20.00;99.90;;;;;;5093844;28;20300;-85
2022/08/30 00:42:03;;;;;;;4.50;3.63;;;20.00;99.90;;;;;;5094754;28;20228;-87
2022/08/30 00:44:31;;;;;;;3.65;3.28;;;20.00;99.90;;;;;;5094189;28;20304;-85
2022/08/30 00:47:01;;;;;;;3.00;2.67;;;20.00;99.90;;;;;;5094011;28;20284;-85
2022/08/30 00:49:31;;;;;;;4.43;3.30;;;19.90;99.90;;;;;;5094125;28;20276;-85
2022/08/30 00:52:00;;;;;;;3.60;3.30;;;19.90;99.90;;;;;;5094327;28;20246;-85
2022/08/30 00:54:30;;;;;;;6.20;3.70;;;19.90;99.90;;;;;;5093653;28;20275;-85
2022/08/30 00:56:59;;;;;;;3.55;3.05;;;19.90;99.90;;;;;;5094356;28;20280;-85
2022/08/30 00:59:28;;;;;;;3.38;3.10;;;19.90;99.90;;;;;;5093701;28;20214;-85
2022/08/30 01:01:57;;;;;;;3.70;3.40;;;19.90;99.90;;;;;;5094498;28;20352;-85
2022/08/30 01:04:28;;;;;;;4.13;2.85;;;19.90;99.90;;;;;;5093788;28;20204;-85
2022/08/30 01:06:57;;;;;;;3.85;3.35;;;19.80;99.90;;;;;;5093537;28;20293;-86
2022/08/30 01:09:25;;;;;;;3.70;3.40;;;19.80;99.90;;;;;;5093827;28;20235;-85
2022/08/30 01:11:54;;;;;;;3.25;2.95;;;19.80;99.90;;;;;;5093406;28;20223;-86
2022/08/30 01:14:23;;;;;;;7.95;3.85;;;19.80;99.90;;;;;;5094040;28;20204;-86
2022/08/30 01:16:56;;;;;;;4.97;4.25;;;19.70;99.90;;;;;;5093468;28;20196;-86
2022/08/30 01:19:36;;;;;;;4.30;3.67;;;19.70;99.90;;;;;;5093647;28;20204;-86
2022/08/30 01:22:10;;;;;;;3.80;3.50;;;19.70;99.90;;;;;;5093384;28;20224;-86
2022/08/30 01:24:40;;;;;;;5.47;3.67;;;19.70;99.90;;;;;;5093956;28;20255;-86
2022/08/30 01:27:08;;;;;;;4.65;3.90;;;19.70;99.90;;;;;;5093683;28;20212;-86
2022/08/30 01:29:37;;;;;;;9.63;3.58;;;19.70;99.90;;;;;;5093704;28;20192;-86
2022/08/30 01:32:06;;;;;;;3.53;3.22;;;19.60;99.90;;;;;;5093583;28;20256;-86
2022/08/30 01:34:34;;;;;;;4.65;4.10;;;19.70;99.90;;;;;;5094099;28;20320;-86
2022/08/30 01:37:02;;;;;;;4.47;4.03;;;19.60;99.90;;;;;;5111563;28;20252;-86
2022/08/30 01:39:31;;;;;;;4.00;3.63;;;19.60;99.90;;;;;;5115453;28;20199;-86
2022/08/30 01:42:02;;;;;;;3.70;3.13;;;19.60;99.90;;;;;;5093833;28;20212;-86
2022/08/30 01:44:30;;;;;;;3.83;3.00;;;19.60;99.90;;;;;;5093138;28;20283;-86
2022/08/30 01:46:58;;;;;;;5.68;3.88;;;19.60;99.90;;;;;;5093138;28;20283;-86
2022/08/30 01:49:27;;;;;;;6.28;3.67;;;19.50;99.90;;;;;;5092965;28;20192;-86
2022/08/30 01:51:56;;;;;;;3.47;3.17;;;19.50;99.90;;;;;;5093606;28;20306;-86
2022/08/30 01:54:29;;;;;;;4.57;3.83;;;19.50;99.90;;;;;;5092999;28;20200;-85
2022/08/30 01:57:07;;;;;;;4.07;3.67;;;19.50;99.90;;;;;;5093519;28;20226;-86
2022/08/30 01:59:36;;;;;;;4.05;3.60;;;19.50;99.90;;;;;;5093089;28;20203;-86
2022/08/30 02:02:05;;;;;;;4.88;3.75;;;19.50;99.90;;;;;;5095194;28;20306;-86
2022/08/30 02:04:35;;;;;;;3.65;3.35;;;19.40;99.90;;;;;;5094964;28;20279;-85
2022/08/30 02:07:04;;;;;;;5.05;3.75;;;19.50;99.90;;;;;;5102915;28;20204;-86
2022/08/30 02:09:32;;;;;;;4.47;4.07;;;19.50;99.90;;;;;;5117445;28;20206;-85
2022/08/30 02:12:01;;;;;;;4.65;3.33;;;19.40;99.90;;;;;;5116338;28;20302;-86
2022/08/30 02:14:30;;;;;;;5.20;3.97;;;19.40;99.90;;;;;;5097503;28;20201;-86
2022/08/30 02:16:59;;;;;;;4.05;3.65;;;19.40;99.90;;;;;;5098597;28;20200;-86
2022/08/30 02:19:27;;;;;;;4.03;3.63;;;19.30;99.90;;;;;;5097415;28;20224;-86
2022/08/30 02:21:55;;;;;;;5.65;3.70;;;19.30;99.90;;;;;;5105467;28;20303;-86
2022/08/30 02:24:24;;;;;;;4.45;3.70;;;19.20;99.90;;;;;;5108316;28;20200;-86
2022/08/30 02:26:53;;;;;;;3.40;3.20;;;19.20;99.90;;;;;;5104887;28;20227;-86
2022/08/30 02:29:22;;;;;;;4.03;3.63;;;19.20;99.90;;;;;;5117053;28;20228;-86
2022/08/30 02:31:52;;;;;;;3.30;3.05;;;19.20;99.90;;;;;;5109052;28;20259;-86
2022/08/30 02:34:21;;;;;;;4.80;3.13;;;19.20;99.90;;;;;;5096670;28;20208;-86
2022/08/30 02:36:50;;;;;;;3.97;3.30;;;19.20;99.90;;;;;;5097838;28;20188;-86
2022/08/30 02:39:18;;;;;;;4.32;3.72;;;19.20;99.90;;;;;;5097250;28;20223;-86
2022/08/30 02:41:46;;;;;;;6.35;4.70;;;19.10;99.90;;;;;;5096952;28;20248;-86
2022/08/30 02:44:15;;;;;;;3.83;3.38;;;19.10;99.90;;;;;;5101654;28;20208;-86
2022/08/30 02:46:44;;;;;;;4.88;4.38;;;19.10;99.90;;;;;;5117411;28;20290;-86
2022/08/30 02:49:14;;;;;;;4.03;3.25;;;19.10;99.90;;;;;;5115136;28;20242;-86
2022/08/30 02:52:01;;;;;;;3.85;3.35;;;19.00;99.90;;;;;;5115406;28;20219;-86
2022/08/30 02:54:31;;;;;;;3.97;3.63;;;19.00;99.90;;;;;;5116933;28;20204;-86
2022/08/30 02:57:03;;;;;;;4.10;3.15;;;19.00;99.90;;;;;;5115314;28;20270;-86
2022/08/30 02:59:32;;;;;;;5.43;3.92;;;18.90;99.90;;;;;;5116690;28;20228;-86
2022/08/30 03:02:01;;;;;;;6.63;3.90;;;18.90;99.90;;;;;;5115005;28;20220;-86
2022/08/30 03:04:30;;;;;;;3.70;3.40;;;18.90;99.90;;;;;;5116695;28;20210;-86
2022/08/30 03:06:59;;;;;;;5.72;3.55;;;18.90;99.90;;;;;;5115780;28;20195;-86
2022/08/30 03:09:27;;;;;;;8.15;3.95;;;18.90;99.90;;;;;;5116468;28;20222;-86
2022/08/30 03:11:55;;;;;;;4.40;4.00;;;18.90;99.90;;;;;;5104217;28;20312;-86
2022/08/30 03:14:24;;;;;;;4.70;4.00;;;18.90;99.90;;;;;;5096186;28;20295;-86
2022/08/30 03:16:52;;;;;;;4.28;3.95;;;18.90;99.90;;;;;;5106402;28;20204;-85
2022/08/30 03:19:21;;;;;;;4.18;3.78;;;18.90;99.90;;;;;;5115953;28;20200;-86
2022/08/30 03:21:51;;;;;;;4.10;3.70;;;18.90;99.90;;;;;;5114988;28;20275;-85
2022/08/30 03:24:19;;;;;;;4.45;4.05;;;18.80;99.90;;;;;;5116628;28;20249;-86
2022/08/30 03:26:47;;;;;;;4.90;4.15;;;18.80;99.90;;;;;;5096859;28;20211;-86
2022/08/30 03:29:15;;;;;;;6.07;4.28;;;18.70;99.90;;;;;;5096047;28;20229;-86
2022/08/30 03:31:44;;;;;;;5.15;4.20;;;18.70;99.90;;;;;;5095648;28;20303;-86
2022/08/30 03:34:21;;;;;;;4.85;4.35;;;18.60;99.90;;;;;;5100062;28;20203;-86
2022/08/30 03:36:52;;;;;;;5.35;3.90;;;18.60;99.90;;;;;;5116513;27;20203;-86
2022/08/30 03:39:23;;;;;;;4.55;4.10;;;18.50;99.90;;;;;;5114308;28;20393;-86
2022/08/30 03:41:52;;;;;;;4.80;3.85;;;18.60;99.90;;;;;;5113366;28;20298;-85
2022/08/30 03:44:20;;;;;;;5.60;4.88;;;18.50;99.90;;;;;;5095804;28;20217;-86
2022/08/30 03:46:49;;;;;;;4.88;4.47;;;18.50;99.90;;;;;;5096822;28;20287;-87
2022/08/30 03:49:17;;;;;;;13.35;4.38;;;18.50;99.90;;;;;;5094629;28;20230;-87
2022/08/30 03:51:46;;;;;;;5.38;4.88;;;18.50;99.90;;;;;;5095089;28;20219;-86
2022/08/30 03:54:16;;;;;;;4.72;4.32;;;18.40;99.90;;;;;;5095582;28;20279;-84
2022/08/30 03:56:44;;;;;;;5.43;4.93;;;18.40;99.90;;;;;;5095799;28;20209;-86
2022/08/30 03:59:13;;;;;;;5.25;4.72;;;18.30;99.90;;;;;;5094838;28;20203;-86
2022/08/30 04:01:41;;;;;;;6.10;5.53;;;18.30;99.90;;;;;;5095190;28;20307;-86
2022/08/30 04:04:10;;;;;;;4.90;4.13;;;18.20;99.90;;;;;;5094875;28;20211;-85
2022/08/30 04:06:39;;;;;;;5.47;5.05;;;18.20;99.90;;;;;;5095042;28;20275;-85
2022/08/30 04:09:07;;;;;;;7.38;4.57;;;18.20;99.90;;;;;;5094705;28;20221;-84
2022/08/30 04:11:37;;;;;;;5.82;4.82;;;18.20;99.90;;;;;;5097804;28;20298;-84
2022/08/30 04:14:05;;;;;;;5.10;4.70;;;18.20;99.90;;;;;;5107573;28;20232;-84
2022/08/30 04:16:33;;;;;;;5.97;5.43;;;18.20;99.90;;;;;;5094755;28;20200;-84
2022/08/30 04:19:02;;;;;;;10.77;5.07;;;18.30;99.90;;;;;;5105496;28;20200;-84
2022/08/30 04:21:46;;;;;;;6.10;4.45;;;18.30;99.90;;;;;;5115301;28;20284;-84
2022/08/30 04:24:14;;;;;;;7.10;4.90;;;18.30;99.90;;;;;;5114964;28;20255;-85
2022/08/30 04:26:44;;;;;;;6.18;3.88;;;18.30;99.90;;;;;;5116044;27;20204;-84
2022/08/30 04:29:15;;;;;;;5.13;4.63;;;18.30;99.90;;;;;;5114312;27;20219;-85
2022/08/30 04:31:44;;;;;;;4.05;3.70;;;18.30;99.90;;;;;;5116291;27;20288;-85
2022/08/30 04:34:13;;;;;;;6.00;4.35;;;18.30;99.90;;;;;;5114727;28;20282;-85
2022/08/30 04:36:42;;;;;;;5.47;4.18;;;18.30;99.90;;;;;;5114874;28;20275;-85
2022/08/30 04:39:15;;;;;;;7.28;4.95;;;18.30;99.90;;;;;;5116271;27;20283;-85
2022/08/30 04:41:45;;;;;;;8.90;3.85;;;18.40;99.90;;;;;;5115487;27;20300;-86
2022/08/30 04:44:13;;;;;;;5.57;4.18;;;18.40;99.90;;;;;;5114843;28;20215;-86
2022/08/30 04:46:46;;;;;;;4.53;4.03;;;18.40;99.90;;;;;;5130916;27;20203;-84
2022/08/30 04:49:15;;;;;;;6.25;5.18;;;18.50;99.90;;;;;;5128551;27;20272;-85
2022/08/30 04:51:43;;;;;;;5.88;5.28;;;18.50;99.90;;;;;;5109709;28;20212;-84
2022/08/30 04:54:12;;;;;;;7.07;4.95;;;18.50;99.90;;;;;;5108431;27;20208;-85
2022/08/30 04:56:40;;;;;;;4.55;3.83;;;18.50;99.90;;;;;;5134409;27;20282;-85
2022/08/30 04:59:10;;;;;;;5.78;4.10;;;18.50;99.90;;;;;;5112652;28;20200;-85
2022/08/30 05:01:38;;;;;;;7.70;4.05;;;18.60;99.90;;;;;;5112251;28;20212;-84
2022/08/30 05:04:13;;;;;;;19.10;4.70;;;18.60;99.90;;;;;;5113099;28;20192;-85
2022/08/30 05:06:41;;;;;;;6.07;4.97;;;18.60;99.90;;;;;;5104406;28;20204;-85
2022/08/30 05:09:10;;;;;;;6.97;4.47;;;18.70;99.90;;;;;;5113136;28;20218;-85
2022/08/30 05:11:38;;;;;;;4.80;4.03;;;18.70;99.90;;;;;;5114456;28;20304;-85
2022/08/30 05:14:06;;;;;;;4.32;3.85;;;18.70;99.90;;;;;;5097187;28;20276;-85
2022/08/30 05:16:36;;;;;;;7.97;5.72;;;18.70;99.90;;;;;;5094373;28;20292;-85
2022/08/30 05:19:06;;;;;;;4.43;4.10;;;18.80;99.90;;;;;;5094002;28;20200;-85
2022/08/30 05:21:34;;;;;;;5.68;4.38;;;18.80;99.90;;;;;;5094185;28;20284;-85
2022/08/30 05:24:03;;;;;;;4.70;4.03;;;18.90;99.90;;;;;;5094369;28;20226;-85
2022/08/30 05:26:33;;;;;;;12.70;4.68;;;18.90;99.90;;;;;;5095751;28;20211;-85
2022/08/30 05:29:02;;;;;;;3.80;3.45;;;18.90;99.90;;;;;;5095404;28;20214;-86
2022/08/30 05:31:33;;;;;;;4.40;4.00;;;19.00;99.90;;;;;;5094819;28;20230;-85
2022/08/30 05:34:04;;;;;;;5.43;4.22;;;19.00;99.90;;;;;;5114058;27;20209;-85
2022/08/30 05:36:36;;;;;;;4.55;3.92;;;19.00;99.90;;;;;;5108820;28;20187;-85
2022/08/30 05:39:14;;;;;;;8.57;4.38;;;19.10;99.90;;;;;;5101318;27;20287;-85
2022/08/30 05:41:46;;;;;;;4.05;3.65;;;19.10;99.90;;;;;;5109271;28;20226;-85
2022/08/30 05:44:17;;;;;;;8.35;4.00;;;19.20;99.90;;;;;;5113895;28;20222;-82
2022/08/30 05:46:49;;;;;;;4.72;4.13;;;19.20;99.90;;;;;;5107418;28;20200;-84
2022/08/30 05:49:19;;;;;;;4.10;3.00;;;19.20;99.90;;;;;;5092766;28;20197;-81
2022/08/30 05:51:47;;;;;;;3.58;3.28;;;19.30;99.90;;;;;;5100005;28;20283;-81
2022/08/30 05:54:16;;;;;;;9.07;3.78;;;19.30;99.90;;;;;;5105926;28;20403;-82
2022/08/30 05:56:46;;;;;;;6.32;4.43;;;19.30;99.90;;;;;;5093851;28;20204;-81
2022/08/30 05:59:15;;;;;;;4.10;3.70;;;19.40;99.90;;;;;;5097232;28;20200;-81
2022/08/30 06:01:45;;;;;;;5.32;4.07;;;19.40;99.90;;;;;;5093223;28;20252;-81
2022/08/30 06:04:14;;;;;;;5.25;4.05;;;19.50;99.90;;;;;;5113610;28;20212;-81
2022/08/30 06:06:44;;;;;;;4.15;3.75;;;19.50;99.90;;;;;;5113851;28;20286;-81
2022/08/30 06:09:14;;;;;;;4.40;3.83;;;19.60;99.90;;;;;;5112142;28;20283;-81
2022/08/30 06:11:43;;;;;;;4.85;4.35;;;19.60;99.90;;;;;;5096060;28;20303;-82
2022/08/30 06:14:12;;;;;;;6.60;4.95;;;19.70;99.90;;;;;;5094697;28;20265;-81
2022/08/30 06:16:44;;;;;;;5.80;5.20;;;19.70;99.90;;;;;;5112583;28;20283;-80
2022/08/30 06:19:14;;;;;;;5.18;4.68;;;19.80;99.90;;;;;;5130515;28;20203;-84
2022/08/30 06:21:47;;;;;;;11.35;6.38;;;19.80;99.90;;;;;;5113031;28;20290;-83
2022/08/30 06:24:16;;;;;;;13.38;5.88;;;19.90;99.90;;;;;;5113453;28;20218;-83
2022/08/30 06:26:46;;;;;;;4.75;4.35;;;19.90;99.90;;;;;;5113192;28;20235;-83
2022/08/30 06:29:21;;;;;;;5.93;5.32;;;20.00;99.90;;;;;;5112907;28;20212;-83
2022/08/30 06:31:49;;;;;;;4.85;4.28;;;20.10;99.90;;;;;;5112589;28;20230;-84
2022/08/30 06:34:18;;;;;;;7.38;4.15;;;20.10;99.90;;;;;;5112879;28;20207;-83
2022/08/30 06:36:48;;;;;;;5.50;4.53;;;20.10;99.90;;;;;;5112901;28;20206;-84
2022/08/30 06:39:16;;;;;;;4.88;3.85;;;20.20;99.90;;;;;;5112175;28;20207;-83
2022/08/30 06:41:44;;;;;;;4.32;3.78;;;20.30;99.90;;;;;;5112875;28;20234;-85
2022/08/30 06:44:13;;;;;;;4.53;3.72;;;20.30;99.90;;;;;;5112436;28;20295;-84
2022/08/30 06:46:41;;;;;;;11.27;4.82;;;20.40;99.90;;;;;;5113089;28;20235;-84
2022/08/30 06:49:09;;;;;;;6.57;4.57;;;20.40;99.90;;;;;;5112344;28;20268;-84
2022/08/30 06:51:39;;;;;;;4.28;3.65;;;20.50;99.90;;;;;;5114321;28;20251;-84
2022/08/30 06:54:11;;;;;;;4.43;3.80;;;20.60;99.90;;;;;;5116292;28;20286;-83
2022/08/30 06:56:40;;;;;;;5.07;4.57;;;20.60;99.90;;;;;;5116458;28;20208;-83
2022/08/30 06:59:24;;;;;;;4.57;4.18;;;20.70;99.90;;;;;;5115888;27;20208;-84
2022/08/30 07:01:54;;;;;;;4.90;3.33;;;20.80;99.90;;;;;;5116031;28;20244;-84
2022/08/30 07:04:22;;;;;;;4.97;4.47;;;20.90;99.90;;;;;;5116300;28;20263;-84
2022/08/30 07:06:51;;;;;;;4.70;3.85;;;20.90;99.90;;;;;;5116198;28;20209;-84
2022/08/30 07:09:21;;;;;;;9.18;3.53;;;21.00;99.90;;;;;;5115881;28;20211;-83
2022/08/30 07:11:50;;;;;;;4.70;3.58;;;21.10;99.90;;;;;;5115574;28;20231;-83
2022/08/30 07:14:19;;;;;;;21.45;4.72;;;21.20;99.90;;;;;;5115756;28;20291;-83
2022/08/30 07:16:48;;;;;;;4.07;3.67;;;21.30;99.90;;;;;;5115429;28;20254;-83
2022/08/30 07:19:18;;;;;;;6.95;4.50;;;21.30;99.90;;;;;;5116035;28;20219;-83
2022/08/30 07:21:49;;;;;;;6.40;5.15;;;21.40;99.90;;;;;;5115869;28;20234;-84
2022/08/30 07:24:20;;;;;;;6.47;3.58;;;21.50;99.90;;;;;;5115550;28;20280;-84
2022/08/30 07:26:50;;;;;;;6.22;5.07;;;21.60;99.90;;;;;;5115582;28;20212;-84
2022/08/30 07:29:20;;;;;;;4.63;3.95;;;21.70;99.90;;;;;;5115638;28;20204;-84
2022/08/30 07:31:49;;;;;;;3.88;3.47;;;21.90;99.90;;;;;;5115458;28;20287;-84
2022/08/30 07:34:18;;;;;;;5.18;3.92;;;22.10;99.90;;;;;;5115620;28;20439;-83
2022/08/30 07:36:49;;;;;;;3.72;3.38;;;22.20;99.90;;;;;;5115346;28;20286;-84
2022/08/30 07:39:18;;;;;;;4.80;3.53;;;22.30;99.90;;;;;;5114941;28;20250;-83
2022/08/30 07:41:49;;;;;;;4.40;3.95;;;22.50;99.90;;;;;;5115632;28;20216;-84
2022/08/30 07:44:18;;;;;;;4.70;3.38;;;22.60;99.90;;;;;;5115399;28;20215;-84
2022/08/30 07:46:50;;;;;;;6.68;4.45;;;22.80;99.90;;;;;;5115623;28;20204;-84
2022/08/30 07:49:19;;;;;;;4.88;3.85;;;22.90;99.90;;;;;;5114988;28;20207;-83
2022/08/30 07:51:47;;;;;;;6.07;3.50;;;23.00;99.90;;;;;;5114874;28;20231;-83
2022/08/30 07:54:16;;;;;;;2.97;2.72;;;23.10;99.90;;;;;;5115165;28;20212;-84
2022/08/30 07:56:44;;;;;;;4.35;3.63;;;23.20;99.90;;;;;;5115020;28;20204;-84
2022/08/30 07:59:13;;;;;;;3.97;3.60;;;23.30;99.90;;;;;;5114773;28;20260;-84
2022/08/30 08:01:42;;;;;;;6.25;3.75;;;23.60;99.90;;;;;;5115109;27;20294;-84
2022/08/30 08:04:10;;;;;;;3.35;3.05;;;23.70;99.90;;;;;;5114934;28;20215;-84
2022/08/30 08:06:40;;;;;;;4.93;3.20;;;24.00;99.90;;;;;;5114842;28;20218;-83
2022/08/30 08:09:08;;;;;;;4.28;3.75;;;24.30;99.90;;;;;;5114688;28;20207;-84
2022/08/30 08:11:38;;;;;;;5.20;3.55;;;24.60;99.90;;;;;;5114595;28;20234;-83
2022/08/30 08:14:07;;;;;;;6.30;3.60;;;24.90;99.90;;;;;;5114964;28;20208;-84
2022/08/30 08:16:38;;;;;;;5.03;3.35;;;25.20;99.90;;;;;;5114770;28;20200;-83
2022/08/30 08:19:07;;;;;;;4.10;3.70;;;25.70;99.90;;;;;;5114374;28;20214;-84
2022/08/30 08:21:36;;;;;;;4.70;3.25;;;26.00;99.90;;;;;;5119452;28;20220;-83
2022/08/30 08:24:05;;;;;;;2.85;2.53;;;26.30;99.90;;;;;;5129703;28;20223;-83
2022/08/30 08:26:35;;;;;;;3.70;3.25;;;26.80;99.90;;;;;;5119907;28;20283;-83
2022/08/30 08:29:03;;;;;;;4.30;3.20;;;27.40;99.90;;;;;;5114846;28;20287;-83
2022/08/30 08:31:32;;;;;;;3.78;3.35;;;28.10;99.90;;;;;;5114044;28;20318;-83
2022/08/30 08:34:04;;;;;;;5.28;3.47;;;28.60;99.90;;;;;;5114310;28;20278;-83
2022/08/30 08:36:34;;;;;;;3.28;3.05;;;29.40;99.90;;;;;;5114466;27;20256;-83
2022/08/30 08:39:05;;;;;;;3.28;2.95;;;30.20;99.90;;;;;;5113683;28;20199;-84
2022/08/30 08:41:46;;;;;;;5.68;3.63;;;30.90;98.90;;;;;;5114039;28;20278;-83
2022/08/30 08:44:22;;;;;;;3.42;2.90;;;31.50;97.00;;;;;;5114309;28;20286;-83
2022/08/30 08:46:56;;;;;;;4.13;3.15;;;31.80;95.80;;;;;;5113913;28;20262;-83
2022/08/30 08:49:27;;;;;;;5.53;3.40;;;32.40;94.90;;;;;;5113857;28;20207;-83
2022/08/30 08:54:48;;;;;;;3.17;2.72;;;33.20;93.80;;;;;;5113850;28;20282;-83
2022/08/30 08:57:17;;;;;;;6.78;3.15;;;33.60;90.30;;;;;;5114172;28;20282;-83
2022/08/30 08:59:53;;;;;;;3.55;2.88;;;33.60;87.40;;;;;;5114297;28;20203;-83
2022/08/30 09:02:25;;;;;;;4.03;2.90;;;34.00;85.40;;;;;;5113467;27;20227;-83
2022/08/30 09:04:59;;;;;;;3.00;2.70;;;34.40;80.70;;;;;;5113386;28;20262;-84
2022/08/30 09:07:32;;;;;;;2.78;2.58;;;34.70;80.00;;;;;;5113610;28;20206;-83
2022/08/30 09:10:00;;;;;;;2.80;2.60;;;34.70;75.40;;;;;;5113490;28;20209;-83
2022/08/30 09:12:29;;;;;;;2.58;2.38;;;35.00;76.50;;;;;;5113712;28;20219;-83
2022/08/30 09:15:03;;;;;;;3.30;2.63;;;35.20;74.90;;;;;;5113269;28;20299;-84
2022/08/30 09:17:50;;;;;;;2.63;2.42;;;34.70;71.40;;;;;;5113506;28;20210;-84
2022/08/30 09:20:32;;;;;;;2.45;2.20;;;34.80;72.20;;;;;;5113321;28;20214;-84
2022/08/30 09:23:21;;;;;;;2.50;2.30;;;34.70;72.00;;;;;;5113406;28;20388;-84
2022/08/30 09:25:53;;;;;;;3.25;2.22;;;35.10;71.20;;;;;;5113723;28;20280;-83
2022/08/30 09:28:24;;;;;;;2.72;2.20;;;35.40;71.30;;;;;;5113241;28;20297;-83
2022/08/30 09:31:05;;;;;;;3.22;2.60;;;35.50;68.90;;;;;;5113548;28;20195;-83
2022/08/30 09:33:39;;;;;;;3.25;2.72;;;35.60;67.70;;;;;;5113409;28;20207;-84
2022/08/30 09:36:21;;;;;;;3.47;2.95;;;35.40;69.00;;;;;;5113416;28;20209;-84
2022/08/30 09:38:59;;;;;;;3.15;2.65;;;35.50;68.70;;;;;;5112938;28;20214;-83
2022/08/30 09:41:36;;;;;;;2.92;2.72;;;35.70;67.90;;;;;;5113102;28;20227;-83
2022/08/30 09:44:08;;;;;;;3.05;2.75;;;35.80;67.10;;;;;;5113268;28;20297;-84
2022/08/30 09:46:48;;;;;;;2.95;2.60;;;35.80;67.60;;;;;;5113193;28;20206;-84
2022/08/30 09:49:33;;;;;;;2.72;2.55;;;36.10;66.60;;;;;;5113123;28;20206;-83
2022/08/30 09:52:21;;;;;;;4.72;3.28;;;36.20;67.80;;;;;;5113238;28;20233;-84
2022/08/30 09:55:04;;;;;;;2.75;2.53;;;36.40;66.40;;;;;;5112864;28;20214;-84
2022/08/30 09:57:38;;;;;;;3.15;2.85;;;36.50;68.30;;;;;;5113178;28;20199;-84
2022/08/30 10:00:10;;;;;;;3.35;2.83;;;36.60;65.10;;;;;;5113059;28;20213;-84
2022/08/30 10:03:03;;;;;;;6.15;3.03;;;36.60;65.50;;;;;;5113119;28;20230;-84
2022/08/30 10:05:38;;;;;;;3.35;2.90;;;36.60;66.60;;;;;;5113051;28;20282;-83
2022/08/30 10:08:17;;;;;;;2.70;2.50;;;36.50;66.10;;;;;;5113583;28;20266;-84
2022/08/30 10:10:51;;;;;;;3.38;2.78;;;36.40;64.30;;;;;;5112891;28;20211;-84
2022/08/30 10:13:48;;;;;;;3.38;3.00;;;36.60;66.10;;;;;;5113266;28;20254;-84
2022/08/30 10:16:30;;;;;;;3.28;2.97;;;36.70;66.10;;;;;;5030446;28;20217;-83
2022/08/30 10:19:11;;;;;;;2.95;2.70;;;36.60;66.50;;;;;;5029974;28;20217;-84
2022/08/30 10:21:49;;;;;;;4.00;3.28;;;36.60;65.20;;;;;;5030270;28;20260;-84
2022/08/30 10:24:24;;;;;;;3.28;2.92;;;36.50;65.70;;;;;;5030767;28;20198;-84
2022/08/30 10:27:04;;;;;;;2.90;2.60;;;36.50;64.60;;;;;;5074944;28;20212;-84
2022/08/30 10:29:37;;;;;;;3.13;2.83;;;36.20;62.70;;;;;;5116484;28;20241;-83
2022/08/30 10:32:16;;;;;;;3.25;2.95;;;35.70;66.10;;;;;;5116808;28;20255;-84
2022/08/30 10:34:50;;;;;;;3.20;2.72;;;35.80;63.80;;;;;;5116617;28;20274;-83
2022/08/30 10:37:23;;;;;;;3.90;3.33;;;35.70;65.00;;;;;;5116508;28;20200;-83
2022/08/30 10:39:57;;;;;;;4.20;3.00;;;35.70;65.00;;;;;;5116024;28;20234;-83
2022/08/30 10:42:30;;;;;;;3.35;3.00;;;35.50;66.90;;;;;;5116596;27;20219;-83
2022/08/30 10:45:10;;;;;;;4.50;2.80;;;35.50;67.70;;;;;;5116442;28;20286;-84
2022/08/30 10:47:45;;;;;;;4.65;3.10;;;35.60;65.80;;;;;;5116529;28;20290;-84
2022/08/30 10:50:17;;;;;;;3.25;2.90;;;35.60;67.00;;;;;;5116039;27;20202;-84
2022/08/30 10:52:54;;;;;;;4.20;3.03;;;35.70;65.80;;;;;;5116648;28;20222;-83
2022/08/30 10:55:27;;;;;;;3.22;2.97;;;36.10;62.80;;;;;;5116229;28;20203;-83
2022/08/30 10:58:00;;;;;;;3.00;2.80;;;36.20;61.40;;;;;;5116172;28;20205;-83
2022/08/30 11:00:31;;;;;;;5.03;2.83;;;36.20;62.80;;;;;;5116068;28;20213;-83
2022/08/30 11:03:36;;;;;;;2.63;2.42;;;36.00;63.70;;;;;;5115660;28;20219;-83
2022/08/30 11:06:18;;;;;;;2.95;2.75;;;36.10;62.90;;;;;;5116158;28;20294;-83
2022/08/30 11:09:02;;;;;;;3.03;2.83;;;35.90;62.40;;;;;;5115917;28;20290;-84
2022/08/30 11:11:44;;;;;;;4.20;2.72;;;35.10;61.40;;;;;;5115955;28;20223;-83
2022/08/30 11:14:16;;;;;;;2.88;2.65;;;35.10;62.80;;;;;;5115776;28;20199;-84
2022/08/30 11:16:47;;;;;;;3.95;3.08;;;35.20;63.10;;;;;;5115413;28;20206;-83
2022/08/30 11:19:20;;;;;;;2.83;2.60;;;35.20;64.50;;;;;;5115594;28;20268;-83
2022/08/30 11:21:50;;;;;;;2.78;2.50;;;35.30;64.70;;;;;;5116004;28;20226;-83
2022/08/30 11:24:21;;;;;;;3.75;2.90;;;35.60;64.70;;;;;;5115354;28;20231;-83
2022/08/30 11:27:02;;;;;;;3.78;2.88;;;36.10;62.90;;;;;;5115542;28;20218;-84
2022/08/30 11:29:43;;;;;;;2.60;2.40;;;36.10;60.20;;;;;;5115037;28;20280;-83
2022/08/30 11:32:45;;;;;;;2.15;2.05;;;36.10;59.70;;;;;;5115161;28;20310;-83
2022/08/30 11:35:36;;;;;;;2.55;2.35;;;36.20;60.30;;;;;;5115190;28;20254;-84
2022/08/30 11:38:13;;;;;;;7.40;2.95;;;36.40;61.00;;;;;;5115022;28;20310;-84
2022/08/30 11:40:52;;;;;;;2.85;2.65;;;36.60;60.90;;;;;;5114972;28;20207;-84
2022/08/30 11:43:51;;;;;;;2.92;2.72;;;36.70;61.30;;;;;;5115104;28;20334;-84
2022/08/30 11:46:35;;;;;;;3.67;2.45;;;36.50;57.50;;;;;;5115306;28;20210;-83
2022/08/30 11:49:21;;;;;;;2.78;2.58;;;35.70;57.90;;;;;;5117965;28;20294;-83
2022/08/30 11:52:09;;;;;;;2.25;2.15;;;34.70;59.20;;;;;;5123000;28;20231;-83
2022/08/30 11:55:18;;;;;;;2.67;2.47;;;34.60;59.40;;;;;;5115458;28;20210;-83
2022/08/30 11:57:53;;;;;;;4.53;2.78;;;35.00;58.00;;;;;;5101804;28;20214;-83
2022/08/30 12:00:33;;;;;;;3.47;2.65;;;35.20;58.20;;;;;;5114813;28;20282;-83
2022/08/30 12:03:04;;;;;;;2.80;2.50;;;35.20;58.40;;;;;;5115001;28;20234;-83
2022/08/30 12:06:04;;;;;;;2.40;2.20;;;35.20;57.40;;;;;;5114588;28;20209;-83
2022/08/30 12:08:53;;;;;;;2.55;2.35;;;35.30;59.30;;;;;;5031813;28;20221;-83
2022/08/30 12:12:01;;;;;;;7.57;2.65;;;35.50;60.00;;;;;;5113106;28;20231;-83
2022/08/30 12:14:50;;;;;;;3.33;2.67;;;35.90;57.10;;;;;;5114601;28;20207;-83
2022/08/30 12:20:22;;;;;;;2.85;2.47;;;35.10;57.00;;;;;;5114263;28;20257;-83
2022/08/30 12:22:51;;;;;;;2.75;2.55;;;35.00;59.50;;;;;;5114010;28;20347;-83
2022/08/30 12:25:25;;;;;;;2.90;2.70;;;34.90;60.20;;;;;;5114258;28;20289;-83
2022/08/30 12:28:13;;;;;;;2.95;2.75;;;34.60;58.60;;;;;;5114267;27;20220;-83
2022/08/30 12:30:43;;;;;;;2.83;2.58;;;34.10;60.20;;;;;;5113855;28;20211;-83
2022/08/30 12:33:25;;;;;;;3.03;2.80;;;34.20;60.80;;;;;;5114005;27;20242;-83
2022/08/30 12:35:58;;;;;;;2.72;2.53;;;34.50;60.90;;;;;;5113967;28;20199;-83
2022/08/30 12:38:28;;;;;;;2.60;2.40;;;34.70;59.70;;;;;;5113794;28;20225;-83
2022/08/30 12:41:00;;;;;;;2.63;2.42;;;35.00;58.90;;;;;;5113838;28;20195;-83
2022/08/30 12:43:33;;;;;;;3.03;2.67;;;35.00;57.00;;;;;;5113492;28;20248;-83
2022/08/30 12:46:11;;;;;;;3.13;2.85;;;34.90;59.10;;;;;;5113742;28;20210;-83
2022/08/30 12:48:44;;;;;;;3.10;2.80;;;34.40;58.40;;;;;;5112571;28;20233;-84
2022/08/30 12:51:29;;;;;;;2.65;2.25;;;33.80;59.90;;;;;;5113718;28;20279;-84
2022/08/30 12:54:07;;;;;;;3.15;2.30;;;33.70;59.90;;;;;;5113610;28;20203;-84
2022/08/30 12:57:00;;;;;;;2.50;2.30;;;33.80;57.70;;;;;;5113259;28;20262;-83
2022/08/30 12:59:52;;;;;;;7.93;2.65;;;33.60;57.90;;;;;;5112901;28;20203;-84
2022/08/30 13:02:41;;;;;;;4.30;2.70;;;33.90;59.50;;;;;;5113291;28;20223;-84
2022/08/30 13:05:33;;;;;;;10.68;2.97;;;34.30;58.30;;;;;;5113333;28;20223;-83
2022/08/30 13:08:10;;;;;;;2.97;2.72;;;34.60;57.90;;;;;;5113608;27;20211;-83
2022/08/30 13:10:50;;;;;;;2.80;2.47;;;34.40;58.50;;;;;;5113244;28;20209;-84
2022/08/30 13:13:32;;;;;;;3.35;2.90;;;34.60;59.10;;;;;;5113283;28;20226;-83
2022/08/30 13:16:12;;;;;;;2.83;2.63;;;34.50;57.70;;;;;;5113402;28;20199;-83
2022/08/30 13:18:40;;;;;;;3.42;3.13;;;34.60;57.20;;;;;;5113211;28;20211;-83
2022/08/30 13:21:21;;;;;;;2.75;2.55;;;34.60;57.70;;;;;;5113102;28;20205;-83